sensor_id;sensor_type;location;lat;lon;timestamp;temperature;humidity
18047;DHT22;9148;51.454;13.862;2023-03-31T00:00:35;10.50;99.90
18047;DHT22;9148;51.454;13.862;2023-03-31T00:03:01;10.50;99.90
18047;DHT22;9148;51.454;13.862;2023-03-31T00:05:27;10.60;99.90
18047;DHT22;9148;51.454;13.862;2023-03-31T00:07:54;10.60;99.90
18047;DHT22;9148;51.454;13.862;2023-03-31T00:10:32;10.60;99.90
18047;DHT22;9148;51.454;13.862;2023-03-31T00:13:00;10.60;99.90
18047;DHT22;9148;51.454;13.862;2023-03-31T00:15:26;10.70;99.90
18047;DHT22;9148;51.454;13.862;2023-03-31T00:17:52;10.70;99.90
18047;DHT22;9148;51.454;13.862;2023-03-31T00:20:18;10.70;99.90
18047;DHT22;9148;51.454;13.862;2023-03-31T00:22:44;10.70;99.90
18047;DHT22;9148;51.454;13.862;2023-03-31T00:25:14;10.80;99.90
18047;DHT22;9148;51.454;13.862;2023-03-31T00:27:44;10.80;99.90
18047;DHT22;9148;51.454;13.862;2023-03-31T00:30:13;10.90;99.90
18047;DHT22;9148;51.454;13.862;2023-03-31T00:32:40;10.90;99.90
18047;DHT22;9148;51.454;13.862;2023-03-31T00:35:06;10.90;99.90
18047;DHT22;9148;51.454;13.862;2023-03-31T00:37:33;11.00;99.90
18047;DHT22;9148;51.454;13.862;2023-03-31T00:39:59;11.00;99.90
18047;DHT22;9148;51.454;13.862;2023-03-31T00:42:25;11.00;99.90
18047;DHT22;9148;51.454;13.862;2023-03-31T00:47:40;11.10;99.90
18047;DHT22;9148;51.454;13.862;2023-03-31T00:50:15;11.10;99.90
18047;DHT22;9148;51.454;13.862;2023-03-31T00:52:44;11.10;99.90
18047;DHT22;9148;51.454;13.862;2023-03-31T00:55:17;11.20;99.90
18047;DHT22;9148;51.454;13.862;2023-03-31T00:57:45;11.20;99.90
18047;DHT22;9148;51.454;13.862;2023-03-31T01:00:13;11.20;99.90
18047;DHT22;9148;51.454;13.862;2023-03-31T01:02:44;11.20;99.90
18047;DHT22;9148;51.454;13.862;2023-03-31T01:05:22;11.20;99.90
18047;DHT22;9148;51.454;13.862;2023-03-31T01:07:55;11.20;99.90
18047;DHT22;9148;51.454;13.862;2023-03-31T01:10:22;11.20;99.90
18047;DHT22;9148;51.454;13.862;2023-03-31T01:12:51;11.20;99.90
18047;DHT22;9148;51.454;13.862;2023-03-31T01:15:18;11.20;99.90
18047;DHT22;9148;51.454;13.862;2023-03-31T01:17:44;11.20;99.90
18047;DHT22;9148;51.454;13.862;2023-03-31T01:20:30;11.20;99.90
18047;DHT22;9148;51.454;13.862;2023-03-31T01:26:07;11.20;99.90
18047;DHT22;9148;51.454;13.862;2023-03-31T01:31:57;11.20;99.90
18047;DHT22;9148;51.454;13.862;2023-03-31T01:35:16;11.20;99.90
18047;DHT22;9148;51.454;13.862;2023-03-31T01:38:06;11.20;99.90
18047;DHT22;9148;51.454;13.862;2023-03-31T01:44:10;11.30;99.90
18047;DHT22;9148;51.454;13.862;2023-03-31T01:46:57;11.30;99.90
18047;DHT22;9148;51.454;13.862;2023-03-31T01:49:41;11.20;99.90
18047;DHT22;9148;51.454;13.862;2023-03-31T01:52:40;11.20;99.90
18047;DHT22;9148;51.454;13.862;2023-03-31T01:55:28;11.30;99.90
18047;DHT22;9148;51.454;13.862;2023-03-31T01:58:06;11.20;99.90
18047;DHT22;9148;51.454;13.862;2023-03-31T02:00:41;11.20;99.90
18047;DHT22;9148;51.454;13.862;2023-03-31T02:03:29;11.80;99.90
18047;DHT22;9148;51.454;13.862;2023-03-31T02:06:04;11.20;99.90
18047;DHT22;9148;51.454;13.862;2023-03-31T02:08:41;11.20;99.90
18047;DHT22;9148;51.454;13.862;2023-03-31T02:11:09;11.20;99.90
18047;DHT22;9148;51.454;13.862;2023-03-31T02:13:37;11.20;99.90
18047;DHT22;9148;51.454;13.862;2023-03-31T02:16:08;11.20;99.90
18047;DHT22;9148;51.454;13.862;2023-03-31T02:18:36;11.30;99.90
18047;DHT22;9148;51.454;13.862;2023-03-31T02:21:06;11.20;99.90
18047;DHT22;9148;51.454;13.862;2023-03-31T02:23:35;11.20;99.90
18047;DHT22;9148;51.454;13.862;2023-03-31T02:26:06;11.20;99.90
18047;DHT22;9148;51.454;13.862;2023-03-31T02:28:36;11.20;99.90
18047;DHT22;9148;51.454;13.862;2023-03-31T02:31:48;11.10;99.90
18047;DHT22;9148;51.454;13.862;2023-03-31T02:34:00;11.10;99.90
18047;DHT22;9148;51.454;13.862;2023-03-31T02:36:26;11.00;99.90
18047;DHT22;9148;51.454;13.862;2023-03-31T02:38:59;11.00;99.90
18047;DHT22;9148;51.454;13.862;2023-03-31T02:41:28;10.90;99.90
18047;DHT22;9148;51.454;13.862;2023-03-31T02:43:53;10.80;99.90
18047;DHT22;9148;51.454;13.862;2023-03-31T02:46:20;10.70;99.90
18047;DHT22;9148;51.454;13.862;2023-03-31T02:48:49;10.70;99.90
18047;DHT22;9148;51.454;13.862;2023-03-31T02:57:40;10.40;99.90
18047;DHT22;9148;51.454;13.862;2023-03-31T03:03:28;10.20;99.90
18047;DHT22;9148;51.454;13.862;2023-03-31T03:09:25;10.10;99.90
18047;DHT22;9148;51.454;13.862;2023-03-31T03:15:25;10.10;99.90
18047;DHT22;9148;51.454;13.862;2023-03-31T03:17:55;10.10;99.90
18047;DHT22;9148;51.454;13.862;2023-03-31T03:20:21;10.10;99.90
18047;DHT22;9148;51.454;13.862;2023-03-31T03:22:47;10.10;99.90
18047;DHT22;9148;51.454;13.862;2023-03-31T03:25:13;10.10;99.90
18047;DHT22;9148;51.454;13.862;2023-03-31T03:27:44;10.20;99.90
18047;DHT22;9148;51.454;13.862;2023-03-31T03:30:12;10.20;99.90
18047;DHT22;9148;51.454;13.862;2023-03-31T03:32:38;10.20;99.90
18047;DHT22;9148;51.454;13.862;2023-03-31T03:35:06;10.20;99.90
18047;DHT22;9148;51.454;13.862;2023-03-31T03:37:32;10.30;99.90
18047;DHT22;9148;51.454;13.862;2023-03-31T03:39:58;10.30;99.90
18047;DHT22;9148;51.454;13.862;2023-03-31T03:42:23;10.30;99.90
18047;DHT22;9148;51.454;13.862;2023-03-31T03:44:49;10.30;99.90
18047;DHT22;9148;51.454;13.862;2023-03-31T03:47:15;10.30;99.90
18047;DHT22;9148;51.454;13.862;2023-03-31T03:49:41;10.30;99.90
18047;DHT22;9148;51.454;13.862;2023-03-31T03:52:06;10.80;99.90
18047;DHT22;9148;51.454;13.862;2023-03-31T03:54:32;10.40;99.90
18047;DHT22;9148;51.454;13.862;2023-03-31T03:56:58;10.40;99.90
18047;DHT22;9148;51.454;13.862;2023-03-31T03:59:23;10.30;99.90
18047;DHT22;9148;51.454;13.862;2023-03-31T04:01:49;10.30;99.90
18047;DHT22;9148;51.454;13.862;2023-03-31T04:04:15;10.30;99.90
18047;DHT22;9148;51.454;13.862;2023-03-31T04:06:41;10.30;99.90
18047;DHT22;9148;51.454;13.862;2023-03-31T04:09:07;10.30;99.90
18047;DHT22;9148;51.454;13.862;2023-03-31T04:11:34;10.30;99.90
18047;DHT22;9148;51.454;13.862;2023-03-31T04:13:59;10.30;99.90
18047;DHT22;9148;51.454;13.862;2023-03-31T04:16:25;10.30;99.90
18047;DHT22;9148;51.454;13.862;2023-03-31T04:18:52;10.30;99.90
18047;DHT22;9148;51.454;13.862;2023-03-31T04:21:24;10.30;99.90
18047;DHT22;9148;51.454;13.862;2023-03-31T04:23:51;10.40;99.90
18047;DHT22;9148;51.454;13.862;2023-03-31T04:26:27;10.40;99.90
18047;DHT22;9148;51.454;13.862;2023-03-31T04:29:08;10.40;99.90
18047;DHT22;9148;51.454;13.862;2023-03-31T04:31:40;10.40;99.90
18047;DHT22;9148;51.454;13.862;2023-03-31T04:34:07;10.40;99.90
18047;DHT22;9148;51.454;13.862;2023-03-31T04:36:38;10.50;99.90
18047;DHT22;9148;51.454;13.862;2023-03-31T04:39:07;10.50;99.90
18047;DHT22;9148;51.454;13.862;2023-03-31T04:41:36;10.60;99.90
18047;DHT22;9148;51.454;13.862;2023-03-31T04:44:02;10.60;99.90
18047;DHT22;9148;51.454;13.862;2023-03-31T04:46:27;10.60;99.90
18047;DHT22;9148;51.454;13.862;2023-03-31T04:48:53;10.70;99.90
18047;DHT22;9148;51.454;13.862;2023-03-31T04:51:19;10.70;99.90
18047;DHT22;9148;51.454;13.862;2023-03-31T04:53:45;10.70;99.90
18047;DHT22;9148;51.454;13.862;2023-03-31T04:56:11;10.70;99.90
18047;DHT22;9148;51.454;13.862;2023-03-31T04:58:37;10.70;99.90
18047;DHT22;9148;51.454;13.862;2023-03-31T05:01:03;10.70;99.90
18047;DHT22;9148;51.454;13.862;2023-03-31T05:03:33;10.80;99.90
18047;DHT22;9148;51.454;13.862;2023-03-31T05:05:59;10.80;99.90
18047;DHT22;9148;51.454;13.862;2023-03-31T05:08:25;10.80;99.90
18047;DHT22;9148;51.454;13.862;2023-03-31T05:10:51;10.80;99.90
18047;DHT22;9148;51.454;13.862;2023-03-31T05:13:17;10.90;99.90
18047;DHT22;9148;51.454;13.862;2023-03-31T05:15:43;10.90;99.90
18047;DHT22;9148;51.454;13.862;2023-03-31T05:18:15;10.90;99.90
18047;DHT22;9148;51.454;13.862;2023-03-31T05:20:41;11.00;99.90
18047;DHT22;9148;51.454;13.862;2023-03-31T05:23:06;11.00;99.90
18047;DHT22;9148;51.454;13.862;2023-03-31T05:25:32;11.00;99.90
18047;DHT22;9148;51.454;13.862;2023-03-31T05:27:59;11.10;99.90
18047;DHT22;9148;51.454;13.862;2023-03-31T05:30:25;11.10;99.90
18047;DHT22;9148;51.454;13.862;2023-03-31T05:32:52;11.10;99.90
18047;DHT22;9148;51.454;13.862;2023-03-31T05:35:18;11.10;99.90
18047;DHT22;9148;51.454;13.862;2023-03-31T05:37:43;11.10;99.90
18047;DHT22;9148;51.454;13.862;2023-03-31T05:40:09;11.20;99.90
18047;DHT22;9148;51.454;13.862;2023-03-31T05:42:36;11.20;99.90
18047;DHT22;9148;51.454;13.862;2023-03-31T05:45:02;11.20;99.90
18047;DHT22;9148;51.454;13.862;2023-03-31T05:47:28;11.30;99.90
18047;DHT22;9148;51.454;13.862;2023-03-31T05:49:54;11.30;99.90
18047;DHT22;9148;51.454;13.862;2023-03-31T05:52:20;11.30;99.90
18047;DHT22;9148;51.454;13.862;2023-03-31T05:54:46;11.30;99.90
18047;DHT22;9148;51.454;13.862;2023-03-31T05:57:12;11.30;99.90
18047;DHT22;9148;51.454;13.862;2023-03-31T05:59:37;11.40;99.90
18047;DHT22;9148;51.454;13.862;2023-03-31T06:02:05;11.40;99.90
18047;DHT22;9148;51.454;13.862;2023-03-31T06:04:30;11.40;99.90
18047;DHT22;9148;51.454;13.862;2023-03-31T06:06:57;11.40;99.90
18047;DHT22;9148;51.454;13.862;2023-03-31T06:09:24;11.50;99.90
18047;DHT22;9148;51.454;13.862;2023-03-31T06:11:50;11.60;99.90
18047;DHT22;9148;51.454;13.862;2023-03-31T06:14:16;11.60;99.90
18047;DHT22;9148;51.454;13.862;2023-03-31T06:16:42;11.60;99.90
18047;DHT22;9148;51.454;13.862;2023-03-31T06:19:08;11.70;99.90
18047;DHT22;9148;51.454;13.862;2023-03-31T06:21:33;11.80;99.90
18047;DHT22;9148;51.454;13.862;2023-03-31T06:23:59;11.80;99.90
18047;DHT22;9148;51.454;13.862;2023-03-31T06:26:25;11.80;99.90
18047;DHT22;9148;51.454;13.862;2023-03-31T06:28:51;11.90;99.90
18047;DHT22;9148;51.454;13.862;2023-03-31T06:31:20;11.90;99.90
18047;DHT22;9148;51.454;13.862;2023-03-31T06:33:47;12.00;99.90
18047;DHT22;9148;51.454;13.862;2023-03-31T06:36:15;12.10;99.90
18047;DHT22;9148;51.454;13.862;2023-03-31T06:38:42;12.10;99.90
18047;DHT22;9148;51.454;13.862;2023-03-31T06:41:10;12.10;99.90
18047;DHT22;9148;51.454;13.862;2023-03-31T06:43:37;12.20;99.90
18047;DHT22;9148;51.454;13.862;2023-03-31T06:46:03;12.20;99.90
18047;DHT22;9148;51.454;13.862;2023-03-31T06:48:29;12.30;99.90
18047;DHT22;9148;51.454;13.862;2023-03-31T06:50:58;12.30;99.90
18047;DHT22;9148;51.454;13.862;2023-03-31T06:53:26;12.40;99.90
18047;DHT22;9148;51.454;13.862;2023-03-31T06:55:52;12.40;99.90
18047;DHT22;9148;51.454;13.862;2023-03-31T06:58:18;12.50;99.90
18047;DHT22;9148;51.454;13.862;2023-03-31T07:00:43;12.60;99.90
18047;DHT22;9148;51.454;13.862;2023-03-31T07:03:10;12.70;99.90
18047;DHT22;9148;51.454;13.862;2023-03-31T07:05:36;12.80;99.90
18047;DHT22;9148;51.454;13.862;2023-03-31T07:08:03;12.90;99.90
18047;DHT22;9148;51.454;13.862;2023-03-31T07:10:30;13.00;99.90
18047;DHT22;9148;51.454;13.862;2023-03-31T07:12:56;13.10;99.90
18047;DHT22;9148;51.454;13.862;2023-03-31T07:15:22;13.20;99.90
18047;DHT22;9148;51.454;13.862;2023-03-31T07:17:49;13.30;99.90
18047;DHT22;9148;51.454;13.862;2023-03-31T07:20:17;13.40;99.90
18047;DHT22;9148;51.454;13.862;2023-03-31T07:22:44;13.40;99.90
18047;DHT22;9148;51.454;13.862;2023-03-31T07:25:12;13.40;99.90
18047;DHT22;9148;51.454;13.862;2023-03-31T07:27:39;13.50;99.90
18047;DHT22;9148;51.454;13.862;2023-03-31T07:30:06;13.50;99.90
18047;DHT22;9148;51.454;13.862;2023-03-31T07:32:33;13.60;99.90
18047;DHT22;9148;51.454;13.862;2023-03-31T07:35:04;13.70;99.90
18047;DHT22;9148;51.454;13.862;2023-03-31T07:37:37;13.80;99.90
18047;DHT22;9148;51.454;13.862;2023-03-31T07:40:04;13.70;99.90
18047;DHT22;9148;51.454;13.862;2023-03-31T07:42:31;13.60;99.90
18047;DHT22;9148;51.454;13.862;2023-03-31T07:44:58;13.40;99.90
18047;DHT22;9148;51.454;13.862;2023-03-31T07:47:24;13.30;99.90
18047;DHT22;9148;51.454;13.862;2023-03-31T07:49:50;13.20;99.90
18047;DHT22;9148;51.454;13.862;2023-03-31T07:52:16;13.00;99.90
18047;DHT22;9148;51.454;13.862;2023-03-31T07:54:47;12.90;99.90
18047;DHT22;9148;51.454;13.862;2023-03-31T07:57:14;12.90;99.90
18047;DHT22;9148;51.454;13.862;2023-03-31T07:59:42;12.80;99.90
18047;DHT22;9148;51.454;13.862;2023-03-31T08:02:14;12.90;99.90
18047;DHT22;9148;51.454;13.862;2023-03-31T08:04:44;13.00;99.90
18047;DHT22;9148;51.454;13.862;2023-03-31T08:07:11;13.10;99.90
18047;DHT22;9148;51.454;13.862;2023-03-31T08:09:38;13.30;99.90
18047;DHT22;9148;51.454;13.862;2023-03-31T08:12:05;13.40;99.90
18047;DHT22;9148;51.454;13.862;2023-03-31T08:14:31;13.60;99.90
18047;DHT22;9148;51.454;13.862;2023-03-31T08:16:57;13.80;99.90
18047;DHT22;9148;51.454;13.862;2023-03-31T08:19:25;13.90;99.90
18047;DHT22;9148;51.454;13.862;2023-03-31T08:21:51;14.10;99.90
18047;DHT22;9148;51.454;13.862;2023-03-31T08:24:18;14.20;99.90
18047;DHT22;9148;51.454;13.862;2023-03-31T08:26:44;14.20;99.90
18047;DHT22;9148;51.454;13.862;2023-03-31T08:29:10;14.30;99.90
18047;DHT22;9148;51.454;13.862;2023-03-31T08:31:35;14.50;99.90
18047;DHT22;9148;51.454;13.862;2023-03-31T08:34:01;14.70;99.90
18047;DHT22;9148;51.454;13.862;2023-03-31T08:36:28;14.80;99.90
18047;DHT22;9148;51.454;13.862;2023-03-31T08:38:53;14.90;99.90
18047;DHT22;9148;51.454;13.862;2023-03-31T08:41:53;15.00;99.90
18047;DHT22;9148;51.454;13.862;2023-03-31T08:44:35;14.90;99.90
18047;DHT22;9148;51.454;13.862;2023-03-31T08:47:08;14.90;99.90
18047;DHT22;9148;51.454;13.862;2023-03-31T08:49:48;14.80;99.90
18047;DHT22;9148;51.454;13.862;2023-03-31T08:52:32;14.80;99.90
18047;DHT22;9148;51.454;13.862;2023-03-31T08:55:04;14.60;99.90
18047;DHT22;9148;51.454;13.862;2023-03-31T09:00:20;14.60;99.90
18047;DHT22;9148;51.454;13.862;2023-03-31T09:03:23;14.50;99.90
18047;DHT22;9148;51.454;13.862;2023-03-31T09:06:07;14.40;99.90
18047;DHT22;9148;51.454;13.862;2023-03-31T09:08:40;14.20;99.90
18047;DHT22;9148;51.454;13.862;2023-03-31T09:16:37;14.30;99.90
18047;DHT22;9148;51.454;13.862;2023-03-31T09:19:19;14.50;99.90
18047;DHT22;9148;51.454;13.862;2023-03-31T09:21:51;14.60;99.90
18047;DHT22;9148;51.454;13.862;2023-03-31T09:24:29;14.70;99.90
18047;DHT22;9148;51.454;13.862;2023-03-31T09:27:04;14.80;99.90
18047;DHT22;9148;51.454;13.862;2023-03-31T09:29:51;14.80;99.90
18047;DHT22;9148;51.454;13.862;2023-03-31T09:35:44;14.70;99.90
18047;DHT22;9148;51.454;13.862;2023-03-31T09:38:11;14.70;99.90
18047;DHT22;9148;51.454;13.862;2023-03-31T09:40:38;14.70;99.90
18047;DHT22;9148;51.454;13.862;2023-03-31T09:43:19;14.70;99.90
18047;DHT22;9148;51.454;13.862;2023-03-31T09:45:48;14.70;99.90
18047;DHT22;9148;51.454;13.862;2023-03-31T09:48:18;14.80;99.90
18047;DHT22;9148;51.454;13.862;2023-03-31T09:50:52;14.70;99.90
18047;DHT22;9148;51.454;13.862;2023-03-31T09:53:37;14.60;99.90
18047;DHT22;9148;51.454;13.862;2023-03-31T09:56:06;14.80;99.90
18047;DHT22;9148;51.454;13.862;2023-03-31T09:58:43;14.80;99.90
18047;DHT22;9148;51.454;13.862;2023-03-31T10:01:11;14.80;99.90
18047;DHT22;9148;51.454;13.862;2023-03-31T10:03:51;14.70;99.90
18047;DHT22;9148;51.454;13.862;2023-03-31T10:06:20;14.70;99.90
18047;DHT22;9148;51.454;13.862;2023-03-31T10:08:53;14.60;99.90
18047;DHT22;9148;51.454;13.862;2023-03-31T10:11:21;14.50;99.90
18047;DHT22;9148;51.454;13.862;2023-03-31T10:14:01;14.30;99.90
18047;DHT22;9148;51.454;13.862;2023-03-31T10:18:54;14.10;99.90
18047;DHT22;9148;51.454;13.862;2023-03-31T10:21:24;14.00;99.90
18047;DHT22;9148;51.454;13.862;2023-03-31T10:23:52;13.80;99.90
18047;DHT22;9148;51.454;13.862;2023-03-31T10:26:21;13.50;99.90
18047;DHT22;9148;51.454;13.862;2023-03-31T10:28:50;13.40;99.90
18047;DHT22;9148;51.454;13.862;2023-03-31T10:31:23;13.30;99.90
18047;DHT22;9148;51.454;13.862;2023-03-31T10:33:51;13.20;99.90
18047;DHT22;9148;51.454;13.862;2023-03-31T10:36:23;13.10;99.90
18047;DHT22;9148;51.454;13.862;2023-03-31T10:38:51;13.00;99.90
18047;DHT22;9148;51.454;13.862;2023-03-31T10:41:27;13.00;99.90
18047;DHT22;9148;51.454;13.862;2023-03-31T10:43:57;12.80;99.90
18047;DHT22;9148;51.454;13.862;2023-03-31T10:46:47;12.70;99.90
18047;DHT22;9148;51.454;13.862;2023-03-31T10:49:22;12.60;99.90
18047;DHT22;9148;51.454;13.862;2023-03-31T10:51:57;12.60;99.90
18047;DHT22;9148;51.454;13.862;2023-03-31T10:54:24;12.50;99.90
18047;DHT22;9148;51.454;13.862;2023-03-31T10:56:54;12.50;99.90
18047;DHT22;9148;51.454;13.862;2023-03-31T10:59:36;12.40;99.90
18047;DHT22;9148;51.454;13.862;2023-03-31T11:08:25;12.30;99.90
18047;DHT22;9148;51.454;13.862;2023-03-31T11:14:00;12.20;99.90
18047;DHT22;9148;51.454;13.862;2023-03-31T11:19:28;12.10;99.90
18047;DHT22;9148;51.454;13.862;2023-03-31T11:23:20;12.00;99.90
18047;DHT22;9148;51.454;13.862;2023-03-31T11:25:35;11.90;99.90
18047;DHT22;9148;51.454;13.862;2023-03-31T11:28:16;11.80;99.90
18047;DHT22;9148;51.454;13.862;2023-03-31T11:33:40;12.00;99.90
18047;DHT22;9148;51.454;13.862;2023-03-31T11:45:29;12.50;99.90
18047;DHT22;9148;51.454;13.862;2023-03-31T11:48:03;12.60;99.90
18047;DHT22;9148;51.454;13.862;2023-03-31T11:50:37;12.60;99.90
18047;DHT22;9148;51.454;13.862;2023-03-31T11:53:10;12.50;99.90
18047;DHT22;9148;51.454;13.862;2023-03-31T11:55:40;12.50;99.90
18047;DHT22;9148;51.454;13.862;2023-03-31T11:58:17;12.50;99.90
18047;DHT22;9148;51.454;13.862;2023-03-31T12:00:51;12.40;99.90
18047;DHT22;9148;51.454;13.862;2023-03-31T12:03:32;12.30;99.90
18047;DHT22;9148;51.454;13.862;2023-03-31T12:06:05;12.20;99.90
18047;DHT22;9148;51.454;13.862;2023-03-31T12:12:02;12.10;99.90
18047;DHT22;9148;51.454;13.862;2023-03-31T12:14:47;12.00;99.90
18047;DHT22;9148;51.454;13.862;2023-03-31T12:17:26;11.80;99.90
18047;DHT22;9148;51.454;13.862;2023-03-31T12:19:58;11.80;99.90
18047;DHT22;9148;51.454;13.862;2023-03-31T12:22:35;11.70;99.90
18047;DHT22;9148;51.454;13.862;2023-03-31T12:25:13;11.70;99.90
18047;DHT22;9148;51.454;13.862;2023-03-31T12:27:45;11.70;99.90
18047;DHT22;9148;51.454;13.862;2023-03-31T12:30:19;11.60;99.90
18047;DHT22;9148;51.454;13.862;2023-03-31T12:32:55;11.60;99.90
18047;DHT22;9148;51.454;13.862;2023-03-31T12:38:55;11.60;99.90
18047;DHT22;9148;51.454;13.862;2023-03-31T12:41:23;11.50;99.90
18047;DHT22;9148;51.454;13.862;2023-03-31T12:49:57;11.30;99.90
18047;DHT22;9148;51.454;13.862;2023-03-31T12:52:51;11.30;99.90
18047;DHT22;9148;51.454;13.862;2023-03-31T12:55:30;11.30;99.90
18047;DHT22;9148;51.454;13.862;2023-03-31T13:11:40;10.90;99.90
18047;DHT22;9148;51.454;13.862;2023-03-31T13:14:18;10.80;99.90
18047;DHT22;9148;51.454;13.862;2023-03-31T13:16:46;10.80;99.90
18047;DHT22;9148;51.454;13.862;2023-03-31T13:21:58;10.70;99.90
18047;DHT22;9148;51.454;13.862;2023-03-31T13:24:27;10.70;99.90
18047;DHT22;9148;51.454;13.862;2023-03-31T13:26:54;10.60;99.90
18047;DHT22;9148;51.454;13.862;2023-03-31T13:29:26;10.60;99.90
18047;DHT22;9148;51.454;13.862;2023-03-31T13:32:06;10.60;99.90
18047;DHT22;9148;51.454;13.862;2023-03-31T13:34:48;10.60;99.90
18047;DHT22;9148;51.454;13.862;2023-03-31T13:37:51;10.60;99.90
18047;DHT22;9148;51.454;13.862;2023-03-31T13:43:43;10.60;99.90
18047;DHT22;9148;51.454;13.862;2023-03-31T13:46:39;10.50;99.90
18047;DHT22;9148;51.454;13.862;2023-03-31T13:52:59;10.60;99.90
18047;DHT22;9148;51.454;13.862;2023-03-31T14:04:35;10.50;99.90
18047;DHT22;9148;51.454;13.862;2023-03-31T14:07:16;10.50;99.90
18047;DHT22;9148;51.454;13.862;2023-03-31T14:09:45;10.50;99.90
18047;DHT22;9148;51.454;13.862;2023-03-31T14:12:34;10.40;99.90
18047;DHT22;9148;51.454;13.862;2023-03-31T14:15:02;10.40;99.90
18047;DHT22;9148;51.454;13.862;2023-03-31T14:17:34;10.40;99.90
18047;DHT22;9148;51.454;13.862;2023-03-31T14:20:53;10.40;99.90
18047;DHT22;9148;51.454;13.862;2023-03-31T14:23:23;10.40;99.90
18047;DHT22;9148;51.454;13.862;2023-03-31T14:32:22;10.50;99.90
18047;DHT22;9148;51.454;13.862;2023-03-31T14:35:20;10.50;99.90
18047;DHT22;9148;51.454;13.862;2023-03-31T14:37:48;10.50;99.90
18047;DHT22;9148;51.454;13.862;2023-03-31T14:40:16;10.50;99.90
18047;DHT22;9148;51.454;13.862;2023-03-31T14:42:43;10.50;99.90
18047;DHT22;9148;51.454;13.862;2023-03-31T14:45:24;10.60;99.90
18047;DHT22;9148;51.454;13.862;2023-03-31T14:47:57;10.80;99.90
18047;DHT22;9148;51.454;13.862;2023-03-31T14:50:33;10.80;99.90
18047;DHT22;9148;51.454;13.862;2023-03-31T14:52:59;10.90;99.90
18047;DHT22;9148;51.454;13.862;2023-03-31T14:55:29;11.00;99.90
18047;DHT22;9148;51.454;13.862;2023-03-31T14:57:57;11.20;99.90
18047;DHT22;9148;51.454;13.862;2023-03-31T15:00:27;11.30;99.90
18047;DHT22;9148;51.454;13.862;2023-03-31T15:02:56;11.40;99.90
18047;DHT22;9148;51.454;13.862;2023-03-31T15:05:31;11.70;99.90
18047;DHT22;9148;51.454;13.862;2023-03-31T15:08:01;11.90;99.90
18047;DHT22;9148;51.454;13.862;2023-03-31T15:10:34;12.00;99.90
18047;DHT22;9148;51.454;13.862;2023-03-31T15:13:08;12.20;99.90
18047;DHT22;9148;51.454;13.862;2023-03-31T15:15:34;12.30;99.90
18047;DHT22;9148;51.454;13.862;2023-03-31T15:18:00;12.40;99.90
18047;DHT22;9148;51.454;13.862;2023-03-31T15:20:35;12.60;99.90
18047;DHT22;9148;51.454;13.862;2023-03-31T15:23:16;12.80;99.90
18047;DHT22;9148;51.454;13.862;2023-03-31T15:25:50;12.90;99.90
18047;DHT22;9148;51.454;13.862;2023-03-31T15:28:25;13.00;99.90
18047;DHT22;9148;51.454;13.862;2023-03-31T15:30:54;13.20;99.90
18047;DHT22;9148;51.454;13.862;2023-03-31T15:33:33;13.30;99.90
18047;DHT22;9148;51.454;13.862;2023-03-31T15:36:06;13.40;99.90
18047;DHT22;9148;51.454;13.862;2023-03-31T15:38:35;13.50;99.90
18047;DHT22;9148;51.454;13.862;2023-03-31T15:41:01;13.40;99.90
18047;DHT22;9148;51.454;13.862;2023-03-31T15:49:04;13.20;99.90
18047;DHT22;9148;51.454;13.862;2023-03-31T15:51:37;13.10;99.90
18047;DHT22;9148;51.454;13.862;2023-03-31T15:54:28;13.10;99.90
18047;DHT22;9148;51.454;13.862;2023-03-31T15:56:58;13.00;99.90
18047;DHT22;9148;51.454;13.862;2023-03-31T15:59:26;12.90;99.90
18047;DHT22;9148;51.454;13.862;2023-03-31T16:01:54;12.80;99.90
18047;DHT22;9148;51.454;13.862;2023-03-31T16:04:21;12.70;99.90
18047;DHT22;9148;51.454;13.862;2023-03-31T16:06:52;12.60;99.90
18047;DHT22;9148;51.454;13.862;2023-03-31T16:09:24;12.60;99.90
18047;DHT22;9148;51.454;13.862;2023-03-31T16:11:55;12.50;99.90
18047;DHT22;9148;51.454;13.862;2023-03-31T16:14:35;12.40;99.90
18047;DHT22;9148;51.454;13.862;2023-03-31T16:17:04;12.40;99.90
18047;DHT22;9148;51.454;13.862;2023-03-31T16:19:42;12.30;99.90
18047;DHT22;9148;51.454;13.862;2023-03-31T16:22:17;12.30;99.90
18047;DHT22;9148;51.454;13.862;2023-03-31T16:24:46;12.20;99.90
18047;DHT22;9148;51.454;13.862;2023-03-31T16:27:12;12.20;99.90
18047;DHT22;9148;51.454;13.862;2023-03-31T16:29:44;12.10;99.90
18047;DHT22;9148;51.454;13.862;2023-03-31T16:32:18;12.10;99.90
18047;DHT22;9148;51.454;13.862;2023-03-31T16:34:53;12.10;99.90
18047;DHT22;9148;51.454;13.862;2023-03-31T16:37:20;12.10;99.90
18047;DHT22;9148;51.454;13.862;2023-03-31T16:39:46;12.10;99.90
18047;DHT22;9148;51.454;13.862;2023-03-31T16:42:11;12.00;99.90
18047;DHT22;9148;51.454;13.862;2023-03-31T16:44:37;12.00;99.90
18047;DHT22;9148;51.454;13.862;2023-03-31T16:47:03;12.00;99.90
18047;DHT22;9148;51.454;13.862;2023-03-31T16:49:28;12.00;99.90
18047;DHT22;9148;51.454;13.862;2023-03-31T16:51:54;11.90;99.90
18047;DHT22;9148;51.454;13.862;2023-03-31T16:54:20;11.90;99.90
18047;DHT22;9148;51.454;13.862;2023-03-31T16:56:46;11.90;99.90
18047;DHT22;9148;51.454;13.862;2023-03-31T16:59:12;11.80;99.90
18047;DHT22;9148;51.454;13.862;2023-03-31T17:01:38;11.80;99.90
18047;DHT22;9148;51.454;13.862;2023-03-31T17:04:04;11.70;99.90
18047;DHT22;9148;51.454;13.862;2023-03-31T17:06:29;11.70;99.90
18047;DHT22;9148;51.454;13.862;2023-03-31T17:08:55;11.60;99.90
18047;DHT22;9148;51.454;13.862;2023-03-31T17:11:21;11.60;99.90
18047;DHT22;9148;51.454;13.862;2023-03-31T17:13:47;11.60;99.90
18047;DHT22;9148;51.454;13.862;2023-03-31T17:16:13;11.50;99.90
18047;DHT22;9148;51.454;13.862;2023-03-31T17:18:39;11.50;99.90
18047;DHT22;9148;51.454;13.862;2023-03-31T17:21:06;11.40;99.90
18047;DHT22;9148;51.454;13.862;2023-03-31T17:23:34;11.40;99.90
18047;DHT22;9148;51.454;13.862;2023-03-31T17:26:00;11.30;99.90
18047;DHT22;9148;51.454;13.862;2023-03-31T17:28:26;11.20;99.90
18047;DHT22;9148;51.454;13.862;2023-03-31T17:30:53;11.20;99.90
18047;DHT22;9148;51.454;13.862;2023-03-31T17:33:19;11.10;99.90
18047;DHT22;9148;51.454;13.862;2023-03-31T17:35:45;11.10;99.90
18047;DHT22;9148;51.454;13.862;2023-03-31T17:38:11;11.00;99.90
18047;DHT22;9148;51.454;13.862;2023-03-31T17:40:39;11.00;99.90
18047;DHT22;9148;51.454;13.862;2023-03-31T17:43:05;10.90;99.90
18047;DHT22;9148;51.454;13.862;2023-03-31T17:45:31;10.80;99.90
18047;DHT22;9148;51.454;13.862;2023-03-31T17:47:58;10.70;99.90
18047;DHT22;9148;51.454;13.862;2023-03-31T17:50:24;10.60;99.90
18047;DHT22;9148;51.454;13.862;2023-03-31T17:52:51;10.50;99.90
18047;DHT22;9148;51.454;13.862;2023-03-31T17:55:17;10.40;99.90
18047;DHT22;9148;51.454;13.862;2023-03-31T17:57:43;10.30;99.90